Last 24 Hours

Thomas Mountain

10 Minute Data | America/Los_Angeles
as of 5/9/26 10:56 AM PDT
Date & Time Temp (°F) Dew Pt (°F) RH (%) Wind Spd (mph) Wind Dir (°) Wind Gust (mph) Wind Gst Dir (°) Daily Max Temp (°F) Daily Min Temp (°F)
5/9/26 - 1050 73.6 28.8 19 11.1 WSW | 243 16.0 WSW | 246 74.3 62.1
5/9/26 - 1040 73.0 26.8 18 11.2 WSW | 242 15.0 WSW | 254 73.3 62.1
5/9/26 - 1030 72.5 26.2 18 11.5 WSW | 245 15.9 WSW | 246 73.3 62.1
5/9/26 - 1020 72.7 26.5 18 9.9 WSW | 246 15.3 WSW | 239 73.3 62.1
5/9/26 - 1010 72.4 26.0 18 9.9 WSW | 245 13.5 WSW | 244 73.1 62.1
5/9/26 - 1000 72.0 24.4 17 8.6 WSW | 247 12.5 WSW | 245 73.1 62.1
5/9/26 - 0950 71.4 23.3 16 8.1 WSW | 240 11.0 WSW | 242 72.0 62.1
5/9/26 - 0940 71.1 23.1 16 7.9 WSW | 247 11.4 WSW | 246 72.0 62.1
5/9/26 - 0930 71.4 23.8 17 7.6 WSW | 249 11.0 WSW | 245 72.0 62.1
5/9/26 - 0920 71.2 24.8 17 5.2 WSW | 252 11.0 WSW | 255 72.0 62.1
5/9/26 - 0910 70.1 24.0 18 5.0 WSW | 249 6.9 WSW | 238 72.0 62.1
5/9/26 - 0900 69.4 23.8 18 4.4 WSW | 255 6.2 WSW | 256 72.0 62.1
5/9/26 - 0850 68.8 24.6 19 3.7 WSW | 241 5.8 SW | 229 72.0 62.1
5/9/26 - 0840 68.5 23.2 18 3.7 WSW | 241 4.7 WSW | 245 72.0 62.1
5/9/26 - 0830 70.6 19.2 14 2.8 SW | 224 5.0 WSW | 249 72.0 62.1
5/9/26 - 0820 71.5 21.3 15 1.7 ENE | 74 5.0 NE | 46 72.0 62.1
5/9/26 - 0810 70.6 19.6 14 2.3 NE | 47 5.0 NE | 44 71.1 62.1
5/9/26 - 0800 69.8 18.6 14 1.5 SW | 216 5.1 NE | 41 70.9 62.1
5/9/26 - 0750 70.4 19.9 15 1.0 S | 173 2.4 SW | 231 70.9 62.1
5/9/26 - 0740 69.4 20.5 15 0.5 NE | 41 1.8 NE | 53 70.0 62.1
5/9/26 - 0730 68.3 18.5 15 0.2 NNE | 32 2.2 NE | 37 68.7 62.1
5/9/26 - 0720 67.8 16.7 14 2.7 NE | 41 4.0 NNE | 31 68.0 62.1
5/9/26 - 0710 67.4 13.2 12 3.8 NE | 36 5.6 NE | 35 67.6 62.1
5/9/26 - 0700 66.5 13.0 12 2.5 NE | 44 3.7 NE | 40 66.8 62.1
5/9/26 - 0650 65.9 9.2 11 2.8 NE | 36 4.5 NE | 41 66.8 62.1
5/9/26 - 0640 65.8 7.6 10 3.9 NE | 39 5.0 NE | 37 66.8 62.1
5/9/26 - 0630 66.4 5.1 9 1.2 SE | 128 3.7 NE | 53 66.8 62.1
5/9/26 - 0620 66.1 4.5 9 0.5 S | 169 1.6 SE | 134 66.5 62.1
5/9/26 - 0610 65.8 5.2 9 0.5 SW | 228 1.3 SW | 229 66.4 62.1
5/9/26 - 0600 65.8 4.4 9 0.7 WSW | 253 2.1 WSW | 248 66.4 62.1
5/9/26 - 0550 65.3 5.6 9 4.3 NNW | 329 6.3 NNW | 332 66.4 62.1
5/9/26 - 0540 65.3 6.3 10 4.7 NNW | 338 6.6 NNW | 341 66.4 62.1
5/9/26 - 0530 65.4 6.9 10 6.0 N | 349 7.1 N | 351 66.4 62.1
5/9/26 - 0520 66.1 6.3 9 4.8 NNW | 340 6.8 N | 353 66.4 62.1
5/9/26 - 0510 65.2 6.5 10 5.1 NNW | 337 6.5 NNW | 343 66.1 62.1
5/9/26 - 0500 65.3 6.8 10 4.9 N | 5 5.7 N | 350 65.5 62.1
5/9/26 - 0450 65.2 6.7 10 5.2 N | 5 6.4 N | 9 65.5 62.1
5/9/26 - 0440 65.1 6.7 10 5.4 NNW | 347 6.5 N | 0 65.5 62.1
5/9/26 - 0430 65.2 6.6 10 5.8 N | 352 6.9 N | 351 65.5 62.1
5/9/26 - 0420 64.7 6.9 10 5.9 N | 359 7.4 N | 4 65.2 62.1
5/9/26 - 0410 64.6 7.0 10 5.7 N | 3 7.3 N | 6 65.2 62.1
5/9/26 - 0400 64.8 6.9 10 6.2 N | 8 8.0 NNE | 17 65.2 62.1
5/9/26 - 0350 64.6 7.1 10 6.5 N | 3 8.6 N | 4 65.2 62.1
5/9/26 - 0340 64.7 7.1 10 5.9 N | 355 7.8 N | 9 65.2 62.1
5/9/26 - 0330 64.4 8.3 11 6.2 N | 357 8.0 N | 354 65.2 62.1
5/9/26 - 0320 64.3 9.0 11 6.3 N | 359 8.3 N | 2 65.1 62.1
5/9/26 - 0310 64.5 8.8 11 7.2 N | 2 8.8 N | 3 65.1 62.1
5/9/26 - 0300 64.1 9.8 12 5.1 N | 6 8.0 N | 6 65.1 62.1
5/9/26 - 0250 64.3 10.6 12 6.3 N | 6 9.2 N | 9 65.1 62.1
5/9/26 - 0240 63.5 12.6 13 5.8 N | 360 8.0 NNE | 13 65.1 62.1
5/9/26 - 0230 63.4 14.2 15 4.8 N | 358 7.9 N | 7 65.1 62.1
5/9/26 - 0220 62.6 15.8 16 5.5 N | 2 7.8 N | 3 65.1 62.1
5/9/26 - 0210 62.7 17.3 17 6.0 N | 1 7.7 N | 4 65.1 62.2
5/9/26 - 0200 63.2 18.7 18 6.3 N | 3 8.3 N | 0 65.1 62.6
5/9/26 - 0150 63.4 19.3 18 6.4 N | 2 8.6 N | 0 65.1 62.9
5/9/26 - 0140 63.8 21.0 19 6.2 N | 3 7.8 NNE | 12 65.1 62.9
5/9/26 - 0130 63.5 23.4 21 5.7 N | 357 7.6 NNE | 22 65.1 62.9
5/9/26 - 0120 64.4 24.3 22 5.8 N | 2 7.8 N | 352 65.1 63.6
5/9/26 - 0110 64.4 24.6 22 6.9 N | 358 8.5 N | 350 65.1 63.6
5/9/26 - 0100 64.0 27.4 25 6.8 N | 3 8.3 N | 9 75.3 58.9
5/9/26 - 0050 63.7 28.7 27 6.6 N | 1 8.4 N | 5 75.3 58.9
5/9/26 - 0040 63.8 30.2 28 7.0 N | 358 8.6 N | 354 75.3 58.9
5/9/26 - 0030 63.1 32.7 32 6.6 N | 1 8.0 N | 3 75.3 58.9
5/9/26 - 0020 62.9 34.0 34 6.4 N | 356 7.7 N | 0 75.3 58.9
5/9/26 - 0010 62.5 36.4 38 6.5 N | 355 8.0 NNW | 339 75.3 58.9
5/9/26 - 0000 64.2 26.3 26 5.4 N | 355 8.0 N | 5 75.3 58.9
5/8/26 - 2350 65.2 21.1 19 5.7 NNW | 346 7.5 NNW | 333 75.3 58.9
5/8/26 - 2340 64.8 26.6 23 5.3 NNW | 348 6.6 NNW | 343 75.3 58.9
5/8/26 - 2330 63.9 32.4 31 5.9 NNW | 348 7.3 NNW | 336 75.3 58.9
5/8/26 - 2320 63.9 35.3 34 6.8 N | 350 8.2 N | 2 75.3 58.9
5/8/26 - 2310 63.7 39.0 40 6.9 N | 355 8.9 N | 354 75.3 58.9
5/8/26 - 2300 63.5 37.6 38 6.1 NNW | 346 7.6 N | 350 75.3 58.9
5/8/26 - 2250 62.6 43.4 50 6.8 N | 349 8.8 N | 351 75.3 58.9
5/8/26 - 2240 62.3 46.4 56 7.7 N | 352 10.2 N | 354 75.3 58.9
5/8/26 - 2230 61.6 46.5 58 6.7 N | 349 10.0 N | 351 75.3 58.9
5/8/26 - 2220 61.4 46.8 59 6.3 N | 352 8.5 N | 5 75.3 58.9
5/8/26 - 2210 61.0 47.6 61 6.6 N | 354 8.9 N | 0 75.3 58.9
5/8/26 - 2200 60.8 48.5 64 8.2 N | 354 11.0 N | 3 75.3 58.9
5/8/26 - 2150 60.3 47.3 62 7.8 N | 2 10.4 NNE | 13 75.3 58.9
5/8/26 - 2140 60.1 47.7 64 7.3 N | 357 11.0 N | 8 75.3 58.9
5/8/26 - 2130 60.5 48.4 64 8.4 N | 0 10.9 N | 4 75.3 58.9
5/8/26 - 2120 60.8 48.8 65 7.8 N | 354 10.6 N | 3 75.3 58.9
5/8/26 - 2110 60.9 48.1 63 8.1 N | 354 10.7 N | 354 75.3 58.9
5/8/26 - 2100 61.1 48.4 63 7.6 N | 350 10.6 N | 1 75.3 58.9
5/8/26 - 2050 61.5 47.5 60 6.9 N | 1 9.9 N | 3 75.3 58.9
5/8/26 - 2040 62.0 47.4 59 6.7 N | 354 8.5 N | 0 75.3 58.9
5/8/26 - 2030 62.0 48.2 61 5.9 N | 356 7.7 N | 354 75.3 58.9
5/8/26 - 2020 63.0 49.0 60 3.4 NNE | 13 6.4 N | 350 75.3 58.9
5/8/26 - 2010 63.3 49.6 61 1.6 N | 7 3.5 N | 10 75.3 58.9
5/8/26 - 2000 63.3 49.2 60 3.2 N | 350 5.3 WSW | 256 75.3 58.9
5/8/26 - 1950 64.1 49.4 59 5.8 W | 267 8.6 W | 261 75.3 58.9
5/8/26 - 1940 64.7 49.4 58 5.9 W | 268 8.8 SW | 227 75.3 58.9
5/8/26 - 1930 65.5 49.6 56 8.8 W | 267 13.4 WSW | 257 75.3 58.9
5/8/26 - 1920 66.3 48.7 53 7.7 W | 263 14.0 W | 268 75.3 58.9
5/8/26 - 1910 67.0 46.6 48 9.5 WSW | 253 14.7 WSW | 251 75.3 58.9
5/8/26 - 1900 67.7 44.2 43 10.1 WSW | 248 14.4 SW | 221 75.3 58.9
5/8/26 - 1850 68.0 44.1 42 11.5 WSW | 245 16.2 WSW | 244 75.3 58.9
5/8/26 - 1840 68.8 43.5 40 11.6 WSW | 243 15.9 WSW | 238 75.3 58.9
5/8/26 - 1830 69.5 43.5 39 10.9 WSW | 243 16.2 WSW | 243 75.3 58.9
5/8/26 - 1820 70.0 43.1 38 11.6 WSW | 246 16.8 WSW | 238 75.3 58.9
5/8/26 - 1810 70.4 42.4 36 11.0 WSW | 246 17.1 W | 259 75.3 58.9
5/8/26 - 1800 70.6 42.1 36 13.2 WSW | 246 18.0 WSW | 241 75.3 58.9
5/8/26 - 1750 71.2 42.2 35 12.8 WSW | 245 17.3 WSW | 248 75.3 58.9
5/8/26 - 1740 72.0 42.5 35 11.5 WSW | 246 19.7 WSW | 248 75.3 58.9
5/8/26 - 1730 72.2 42.4 34 12.2 WSW | 248 21.8 SW | 233 75.3 58.9
5/8/26 - 1720 72.2 42.5 34 13.4 WSW | 246 19.1 SW | 227 75.3 58.9
5/8/26 - 1710 72.4 41.7 33 12.4 WSW | 251 21.8 WSW | 250 75.3 58.9
5/8/26 - 1700 73.0 40.2 31 11.0 W | 262 20.2 WSW | 252 75.3 58.9
5/8/26 - 1650 73.2 40.9 31 13.3 WSW | 249 22.1 WSW | 242 75.3 58.9
5/8/26 - 1640 73.5 41.4 31 13.0 WSW | 247 21.3 SW | 230 75.3 58.9
5/8/26 - 1630 73.0 41.6 32 13.6 WSW | 246 23.8 WSW | 247 75.3 58.9
5/8/26 - 1620 73.3 41.9 32 13.6 W | 261 24.2 WSW | 251 75.3 58.9
5/8/26 - 1610 72.9 42.7 34 11.9 W | 271 21.8 WSW | 250 75.3 58.9
5/8/26 - 1600 73.6 41.4 31 12.8 W | 262 22.6 WSW | 239 75.3 58.9
5/8/26 - 1550 73.7 39.9 30 15.6 WSW | 253 24.0 WSW | 244 75.3 58.9
5/8/26 - 1540 74.0 41.0 30 11.6 WSW | 255 20.5 W | 274 75.3 58.9
5/8/26 - 1530 74.2 40.4 30 12.9 W | 260 21.8 WSW | 252 75.3 58.9
5/8/26 - 1520 74.0 40.2 30 13.3 WSW | 252 22.1 W | 260 75.3 58.9
5/8/26 - 1510 74.3 38.9 28 12.2 WSW | 249 21.8 W | 271 75.3 58.9
5/8/26 - 1500 74.0 37.4 26 12.9 WSW | 252 20.8 W | 265 75.3 58.9
5/8/26 - 1450 74.0 37.2 26 12.7 WSW | 255 21.6 WSW | 247 75.3 58.9
5/8/26 - 1440 74.4 36.9 26 12.0 WSW | 251 23.5 WSW | 239 75.3 58.9
5/8/26 - 1430 74.1 36.9 26 12.5 WSW | 243 19.9 WSW | 237 75.0 58.9
5/8/26 - 1420 73.8 35.7 25 11.9 WSW | 246 22.9 WSW | 246 75.0 58.9
5/8/26 - 1410 73.9 34.3 23 12.3 WSW | 247 21.9 WSW | 239 75.0 58.9
5/8/26 - 1400 73.6 34.8 24 12.2 WSW | 243 22.9 WSW | 243 75.0 58.9
5/8/26 - 1350 73.5 34.1 24 13.3 WSW | 252 20.8 WSW | 247 75.0 58.9
5/8/26 - 1340 73.8 36.1 25 10.7 WSW | 240 22.3 SW | 235 75.0 58.9
5/8/26 - 1330 73.5 37.5 27 11.4 WSW | 246 20.2 W | 261 74.3 58.9
5/8/26 - 1320 72.9 38.4 29 13.6 WSW | 251 27.5 WSW | 253 74.2 58.9
5/8/26 - 1310 72.9 38.9 29 9.2 WSW | 256 21.6 WSW | 254 74.2 58.9
5/8/26 - 1300 72.9 39.0 29 11.6 WSW | 244 20.3 SW | 228 74.2 58.9
5/8/26 - 1250 72.9 37.0 27 12.0 WSW | 252 18.8 WSW | 238 74.2 58.9
5/8/26 - 1240 72.9 36.6 27 12.8 WSW | 246 20.0 WSW | 249 73.8 58.9
5/8/26 - 1230 72.6 35.3 26 11.8 WSW | 247 21.4 W | 260 73.7 58.9
5/8/26 - 1220 72.8 34.0 24 11.8 WSW | 250 21.9 W | 261 73.7 58.9
5/8/26 - 1210 72.7 34.2 24 11.6 WSW | 251 21.3 W | 261 73.7 58.9
5/8/26 - 1200 72.6 31.8 22 10.8 WSW | 250 21.6 WSW | 246 73.7 58.9
5/8/26 - 1150 72.5 29.7 20 9.9 W | 270 18.3 WSW | 246 73.3 58.9
5/8/26 - 1140 72.6 29.3 20 10.4 WSW | 252 18.5 W | 278 73.3 58.9
5/8/26 - 1130 72.5 27.7 19 10.3 W | 265 19.1 W | 265 73.3 58.9
5/8/26 - 1120 72.7 27.6 19 11.1 WSW | 254 19.0 W | 262 73.2 58.9
5/8/26 - 1110 72.3 26.5 18 11.2 WSW | 250 20.2 W | 267 73.2 58.9
5/8/26 - 1100 72.7 28.1 19 9.6 W | 264 21.3 WSW | 239 73.2 58.9
5/8/26 - 1050 72.3 28.7 20 9.3 WSW | 257 16.9 WSW | 256 73.2 58.9
Max 74.4 49.6 65 15.6 - 27.5 - 75.3 63.6
Avg 67.9 29.6 28 7.8 - 12.3 - - -
Min 60.1 4.4 9 0.2 - 1.3 - 65.1 58.9